الصفحة الرئيسية
METAR-TAF:

METAR-TAF

مطار :

مطار كانجرلوسواك

Kangerlussuaq, جرينلاند

دائرة عرض: 67-01N, خط طول: 050-42W, ارتفاع: 50 متر

مراقبة الطقس الحالي

تاريخ ووقت الإصدار 44 دقيقة قبل الساعة 23:50UTC
ريح 3 عقدةمن اتجاهات متغيرة
درجة الحرارة -3°درجة مئوية
الرطوبة 50%
ضغط 999 hPa
الرؤية 10 كم أو أكثر

METAR: BGSF 162350Z AUTO VRB03KT 9999NDV NCD M03/M12 Q0999

زمن: 22:34 (00:34 UTC)

توقعات

تاريخ ووقت الإصدار 1ساعة و 41 دقيقة قبل الساعة 22:53UTC
التوقعات صالحة من17 الساعة 00 UTC إلى 17 الساعة 24 UTC
ريح 8 عقدة من الشرق/الشمال الشرقي
الرؤية 10 كم أو أكثر
غيوم قليلة على ارتفاع 10000 قدم

TAF: BGSF 162253Z 1700/1724 07008KT 9999 FEW100

أرصاد الطقس والتوقعات من أكثر من 4000 مطار (تقارير الطقس للمطار METAR والتنبؤ بالطقس بالمطارTAF).

المحطات المتاحة هي النقط الصفراء والحمراء على الخريطة.

حرك المؤشر فوق النقطة لمعرفة اسم المحطة.

ثم انقر لمعرفة أرصاد وتوقعات الطقس.

لتغيير الخارطة: اضغط على الأزرار الخضراء مع رمز الصليب الأسود للتكبير. على الزر الأخضر مع شرطة للتصغير، أو على الأسهم الخضراء للخرائط المجاورة.


METAR-TAF: